Time;durP1;ratioP1;P1;durP2;ratioP2;P2;SDS_P1;SDS_P2;PMS_P1;PMS_P2;Temp;Humidity;BMP_temperature;BMP_pressure;BME280_temperature;BME280_humidity;BME280_pressure;Samples;Min_cycle;Max_cycle;Signal;HPM_P1;HPM_P2
2024/04/21 00:00:10;;;;;;;0.60;0.50;;;;;;;8.49;100.00;99671.54;105970;1260;61305;-56
2024/04/21 00:02:36;;;;;;;0.60;0.50;;;;;;;8.44;100.00;99662.80;105991;1257;75066;-57
2024/04/21 00:05:04;;;;;;;0.50;0.40;;;;;;;8.39;100.00;99647.84;105896;1260;66188;-56
2024/04/21 00:07:31;;;;;;;2.30;0.50;;;;;;;8.32;100.00;99641.31;106764;1257;73119;-57
2024/04/21 00:09:58;;;;;;;0.80;0.40;;;;;;;8.23;100.00;99639.34;106229;1260;61318;-55
2024/04/21 00:12:25;;;;;;;0.30;0.30;;;;;;;8.16;100.00;99638.92;105882;1261;61244;-57
2024/04/21 00:14:51;;;;;;;1.40;0.40;;;;;;;8.11;100.00;99631.95;105955;1260;75955;-53
2024/04/21 00:17:18;;;;;;;0.60;0.30;;;;;;;8.07;100.00;99631.96;105847;1258;66566;-55
2024/04/21 00:19:44;;;;;;;1.50;0.50;;;;;;;8.03;100.00;99638.71;105968;1261;73151;-56
2024/04/21 00:22:11;;;;;;;1.00;0.40;;;;;;;7.99;100.00;99650.11;105988;1259;62131;-56
2024/04/21 00:24:38;;;;;;;0.80;0.40;;;;;;;7.96;100.00;99650.77;108898;1256;59190;-57
2024/04/21 00:27:04;;;;;;;0.70;0.60;;;;;;;7.91;100.00;99643.84;108797;1256;73243;-56
2024/04/21 00:29:31;;;;;;;0.60;0.40;;;;;;;7.86;100.00;99629.38;107207;1259;65194;-55
2024/04/21 00:31:58;;;;;;;0.60;0.40;;;;;;;7.84;100.00;99616.42;105917;1258;71894;-59
2024/04/21 00:34:25;;;;;;;0.70;0.40;;;;;;;7.83;100.00;99589.14;106098;1260;61444;-54
2024/04/21 00:36:52;;;;;;;2.60;0.40;;;;;;;7.83;100.00;99572.89;105935;1261;61921;-57
2024/04/21 00:39:19;;;;;;;0.60;0.40;;;;;;;7.84;100.00;99569.41;105968;1260;74594;-58
2024/04/21 00:41:46;;;;;;;1.00;0.60;;;;;;;7.83;100.00;99560.15;108778;1257;66788;-54
2024/04/21 00:44:12;;;;;;;0.60;0.50;;;;;;;7.83;100.00;99557.31;108849;1256;72578;-55
2024/04/21 00:46:39;;;;;;;0.70;0.50;;;;;;;7.79;100.00;99555.87;108864;1256;60062;-57
2024/04/21 00:49:06;;;;;;;0.60;0.40;;;;;;;7.74;100.00;99563.03;108946;1254;60641;-57
2024/04/21 00:51:34;;;;;;;1.10;0.50;;;;;;;7.71;100.00;99556.41;109174;1254;74511;-57
2024/04/21 00:54:01;;;;;;;0.90;0.50;;;;;;;7.69;100.00;99537.52;109152;1254;66080;-57
2024/04/21 00:56:28;;;;;;;2.30;0.50;;;;;;;7.66;100.00;99522.64;109095;1254;71950;-56
2024/04/21 00:58:55;;;;;;;2.20;0.60;;;;;;;7.62;100.00;99516.92;109009;1253;61656;-56
2024/04/21 01:01:22;;;;;;;1.80;0.60;;;;;;;7.57;100.00;99516.91;109110;1253;59116;-54
2024/04/21 01:03:51;;;;;;;1.30;0.50;;;;;;;7.54;100.00;99519.56;109094;1254;73425;-57
2024/04/21 01:06:20;;;;;;;0.50;0.40;;;;;;;7.49;100.00;99510.66;109257;1253;65646;-56
2024/04/21 01:08:47;;;;;;;0.70;0.40;;;;;;;7.47;100.00;99514.50;109050;1256;71788;-55
2024/04/21 01:11:17;;;;;;;1.30;0.40;;;;;;;7.46;100.00;99510.25;109188;1253;63217;-56
2024/04/21 01:13:44;;;;;;;0.70;0.30;;;;;;;7.47;100.00;99489.13;109125;1252;60395;-56
2024/04/21 01:16:11;;;;;;;2.90;0.30;;;;;;;7.48;100.00;99481.59;107766;1253;74141;-56
2024/04/21 01:18:39;;;;;;;0.60;0.40;;;;;;;7.49;100.00;99484.93;107339;1253;67387;-54
2024/04/21 01:21:05;;;;;;;0.30;0.20;;;;;;;7.47;100.00;99471.09;106170;1257;73654;-58
2024/04/21 01:23:32;;;;;;;0.70;0.30;;;;;;;7.49;100.00;99470.30;106156;1258;61232;-58
2024/04/21 01:25:59;;;;;;;1.10;0.40;;;;;;;7.49;100.00;99472.22;106108;1257;60873;-56
2024/04/21 01:28:26;;;;;;;3.10;0.60;;;;;;;7.50;100.00;99468.10;106188;1253;73490;-58
2024/04/21 01:30:53;;;;;;;0.80;0.30;;;;;;;7.50;100.00;99458.44;106088;1257;67705;-57
2024/04/21 01:33:21;;;;;;;0.70;0.30;;;;;;;7.50;100.00;99456.33;108076;1254;73197;-58
2024/04/21 01:35:48;;;;;;;0.50;0.30;;;;;;;7.48;100.00;99444.13;109244;1254;60881;-58
2024/04/21 01:38:16;;;;;;;0.60;0.30;;;;;;;7.48;100.00;99442.33;109012;1253;59044;-59
2024/04/21 01:40:43;;;;;;;0.40;0.20;;;;;;;7.47;100.00;99461.29;109182;1254;74895;-58
2024/04/21 01:43:09;;;;;;;0.40;0.30;;;;;;;7.47;100.00;99482.00;109244;1253;66507;-56
2024/04/21 01:45:36;;;;;;;0.30;0.20;;;;;;;7.49;100.00;99474.92;109086;1253;73480;-57
2024/04/21 01:48:04;;;;;;;0.60;0.30;;;;;;;7.48;100.00;99435.86;107021;1256;61320;-55
2024/04/21 01:50:31;;;;;;;0.40;0.30;;;;;;;7.47;100.00;99409.69;109126;1253;60179;-56
2024/04/21 01:52:57;;;;;;;1.70;0.30;;;;;;;7.45;100.00;99395.83;106551;1254;74497;-57
2024/04/21 01:55:24;;;;;;;1.00;0.30;;;;;;;7.42;100.00;99397.91;106095;1254;67063;-58
2024/04/21 01:57:51;;;;;;;0.30;0.20;;;;;;;7.37;100.00;99396.90;106124;1255;72592;-59
2024/04/21 02:00:18;;;;;;;1.50;0.20;;;;;;;7.32;100.00;99396.88;106191;1254;61432;-56
2024/04/21 02:02:44;;;;;;;1.80;0.20;;;;;;;7.32;100.00;99390.10;106197;1254;62108;-54
2024/04/21 02:05:11;;;;;;;1.20;0.20;;;;;;;7.34;100.00;99375.94;106267;1253;74634;-58
2024/04/21 02:07:38;;;;;;;0.40;0.20;;;;;;;7.36;100.00;99362.29;106235;1257;67536;-54
2024/04/21 02:10:06;;;;;;;0.40;0.30;;;;;;;7.38;100.00;99357.95;106195;1253;72556;-55
2024/04/21 02:12:33;;;;;;;0.40;0.30;;;;;;;7.40;100.00;99361.22;106336;1260;61109;-56
2024/04/21 02:15:00;;;;;;;0.30;0.20;;;;;;;7.40;100.00;99379.59;106078;1254;61040;-57
2024/04/21 02:17:27;;;;;;;0.10;0.10;;;;;;;7.41;100.00;99374.75;106036;1257;74552;-58
2024/04/21 02:19:53;;;;;;;0.50;0.30;;;;;;;7.41;100.00;99352.41;106008;1257;66994;-57
2024/04/21 02:22:20;;;;;;;0.40;0.10;;;;;;;7.40;100.00;99328.73;106109;1254;71016;-57
2024/04/21 02:24:47;;;;;;;0.80;0.30;;;;;;;7.39;100.00;99332.53;106063;1254;61195;-56
2024/04/21 02:27:14;;;;;;;0.50;0.20;;;;;;;7.41;100.00;99355.30;106123;1257;61276;-57
2024/04/21 02:29:41;;;;;;;0.20;0.10;;;;;;;7.44;100.00;99357.13;106738;1257;75684;-56
2024/04/21 02:32:08;;;;;;;0.50;0.20;;;;;;;7.45;100.00;99354.58;106151;1259;66678;-56
2024/04/21 02:34:34;;;;;;;0.20;0.20;;;;;;;7.44;100.00;99349.13;106287;1257;72694;-56
2024/04/21 02:37:01;;;;;;;0.30;0.20;;;;;;;7.39;100.00;99333.05;106623;1253;61310;-55
2024/04/21 02:39:28;;;;;;;0.20;0.10;;;;;;;7.34;100.00;99319.70;106247;1257;60967;-59
2024/04/21 02:41:55;;;;;;;0.30;0.20;;;;;;;7.28;100.00;99301.41;106385;1256;74334;-57
2024/04/21 02:44:22;;;;;;;0.40;0.20;;;;;;;7.25;100.00;99284.05;106543;1269;69356;-56
2024/04/21 02:46:49;;;;;;;1.40;0.20;;;;;;;7.21;100.00;99269.55;106075;1256;72402;-56
2024/04/21 02:49:16;;;;;;;0.50;0.20;;;;;;;7.20;100.00;99271.95;106117;1254;61355;-58
2024/04/21 02:51:43;;;;;;;0.30;0.20;;;;;;;7.19;100.00;99276.61;106417;1257;61446;-57
2024/04/21 02:57:13;;;;;;;0.10;0.10;;;;;;;7.22;100.00;99296.32;101983;1292;600797;-61
2024/04/21 02:59:40;;;;;;;0.50;0.10;;;;;;;7.22;100.00;99290.39;104207;1268;59802;-60
2024/04/21 03:02:07;;;;;;;0.40;0.10;;;;;;;7.23;100.00;99271.08;104090;1267;59730;-60
2024/04/21 03:04:34;;;;;;;0.30;0.20;;;;;;;7.22;100.00;99251.88;104437;1267;74211;-64
2024/04/21 03:07:01;;;;;;;0.20;0.20;;;;;;;7.20;100.00;99234.10;104327;1266;65721;-62
2024/04/21 03:09:28;;;;;;;0.60;0.20;;;;;;;7.17;100.00;99219.41;104310;1268;73023;-60
2024/04/21 03:11:55;;;;;;;0.30;0.10;;;;;;;7.14;100.00;99205.09;104353;1263;210903;-61
2024/04/21 03:14:21;;;;;;;0.20;0.10;;;;;;;7.13;100.00;99191.42;104176;1263;59642;-59
2024/04/21 03:16:48;;;;;;;0.50;0.10;;;;;;;7.10;100.00;99172.63;104434;1263;73154;-60
2024/04/21 03:19:15;;;;;;;0.20;0.20;;;;;;;7.06;100.00;99159.42;105129;1269;66014;-59
2024/04/21 03:21:41;;;;;;;0.80;0.10;;;;;;;7.07;100.00;99159.91;104249;1264;73226;-64
2024/04/21 03:24:08;;;;;;;0.30;0.20;;;;;;;7.08;100.00;99145.79;104284;1269;60578;-64
2024/04/21 03:26:35;;;;;;;0.20;0.20;;;;;;;7.09;100.00;99131.65;105095;1267;60492;-61
2024/04/21 03:29:02;;;;;;;0.20;0.10;;;;;;;7.08;100.00;99126.30;104482;1264;74744;-62
2024/04/21 03:31:29;;;;;;;19.50;0.20;;;;;;;7.06;100.00;99140.14;104376;1263;65465;-64
2024/04/21 03:33:56;;;;;;;0.40;0.20;;;;;;;7.05;100.00;99138.07;104482;1264;72881;-62
2024/04/21 03:36:23;;;;;;;0.10;0.10;;;;;;;7.05;100.00;99142.91;104158;1264;60554;-62
2024/04/21 03:38:49;;;;;;;1.80;0.20;;;;;;;7.06;100.00;99149.79;104285;1264;60448;-62
2024/04/21 03:41:16;;;;;;;0.20;0.10;;;;;;;7.09;100.00;99165.86;108450;1264;74263;-63
2024/04/21 03:43:46;;;;;;;0.20;0.10;;;;;;;7.13;100.00;99173.73;108466;1264;66993;-64
2024/04/21 03:46:12;;;;;;;0.30;0.10;;;;;;;7.18;100.00;99148.19;108397;1264;71935;-60
2024/04/21 03:48:39;;;;;;;0.20;0.10;;;;;;;7.22;100.00;99129.46;104862;1266;60672;-62
2024/04/21 03:51:06;;;;;;;0.30;0.10;;;;;;;7.26;100.00;99125.16;108386;1265;59040;-61
2024/04/21 03:53:33;;;;;;;0.10;0.10;;;;;;;7.28;100.00;99119.03;105670;1265;71611;-60
2024/04/21 03:56:00;;;;;;;0.30;0.20;;;;;;;7.29;100.00;99133.08;104348;1266;65947;-59
2024/04/21 03:58:27;;;;;;;0.20;0.10;;;;;;;7.28;100.00;99107.41;104336;1268;72654;-66
2024/04/21 04:00:57;;;;;;;0.20;0.10;;;;;;;7.26;100.00;99085.37;108440;1264;61437;-60
2024/04/21 04:03:23;;;;;;;0.20;0.10;;;;;;;7.25;100.00;99085.23;108510;1264;61219;-62
2024/04/21 04:05:52;;;;;;;1.30;0.10;;;;;;;7.24;100.00;99077.23;108409;1263;72614;-63
2024/04/21 04:08:18;;;;;;;0.70;0.10;;;;;;;7.25;100.00;99063.29;108409;1263;65866;-62
2024/04/21 04:10:45;;;;;;;0.30;0.10;;;;;;;7.28;100.00;99053.54;108447;1266;73145;-61
2024/04/21 04:13:12;;;;;;;0.60;0.10;;;;;;;7.31;100.00;99053.91;108499;1266;61727;-63
2024/04/21 04:15:39;;;;;;;0.60;0.10;;;;;;;7.35;100.00;99055.70;108160;1269;59041;-61
2024/04/21 04:18:06;;;;;;;0.10;0.10;;;;;;;7.39;100.00;99055.85;108520;1263;73678;-60
2024/04/21 04:20:33;;;;;;;0.10;0.10;;;;;;;7.42;100.00;99060.34;108328;1268;67642;-61
2024/04/21 04:23:04;;;;;;;0.10;0.10;;;;;;;7.46;100.00;99058.55;105792;1267;71309;-62
2024/04/21 04:25:30;;;;;;;0.30;0.10;;;;;;;7.52;100.00;99051.13;104286;1268;60759;-62
2024/04/21 04:27:57;;;;;;;0.30;0.10;;;;;;;7.58;100.00;99034.05;104090;1268;60417;-62
2024/04/21 04:30:24;;;;;;;0.90;0.20;;;;;;;7.61;100.00;99025.17;108364;1263;74357;-61
2024/04/21 04:32:51;;;;;;;0.20;0.20;;;;;;;7.62;100.00;98999.23;108399;1266;67455;-61
2024/04/21 04:35:17;;;;;;;0.20;0.10;;;;;;;7.63;100.00;98987.44;108480;1264;72521;-60
2024/04/21 04:37:44;;;;;;;0.30;0.20;;;;;;;7.66;100.00;98995.33;108340;1266;60667;-64
2024/04/21 04:40:11;;;;;;;0.50;0.10;;;;;;;7.68;100.00;99001.27;108367;1266;59215;-61
2024/04/21 04:42:38;;;;;;;0.20;0.00;;;;;;;7.68;100.00;99000.38;108372;1264;72555;-60
2024/04/21 04:45:05;;;;;;;0.10;0.10;;;;;;;7.70;100.00;98997.97;105099;1268;65724;-63
2024/04/21 04:47:33;;;;;;;0.40;0.10;;;;;;;7.72;100.00;99005.03;105045;1268;72641;-62
2024/04/21 04:50:01;;;;;;;0.00;0.00;;;;;;;7.72;100.00;99019.11;104079;1268;60854;-61
2024/04/21 04:52:28;;;;;;;0.00;0.00;;;;;;;7.75;100.00;99024.88;104984;1264;60444;-61
2024/04/21 04:54:55;;;;;;;0.10;0.00;;;;;;;7.78;100.00;98991.88;104916;1266;74275;-61
2024/04/21 04:57:22;;;;;;;0.30;0.10;;;;;;;7.78;100.00;98976.13;104179;1267;67127;-57
2024/04/21 04:59:49;;;;;;;0.10;0.10;;;;;;;7.76;100.00;98959.61;104216;1266;71925;-61
2024/04/21 05:02:15;;;;;;;0.10;0.10;;;;;;;7.74;100.00;98950.82;104463;1265;61858;-60
2024/04/21 05:04:42;;;;;;;0.10;0.00;;;;;;;7.72;100.00;98949.48;104035;1269;60477;-59
2024/04/21 05:07:10;;;;;;;0.10;0.00;;;;;;;7.71;100.00;98957.38;104302;1269;73808;-62
2024/04/21 05:09:39;;;;;;;0.10;0.10;;;;;;;7.71;100.00;98950.61;104603;1266;67459;-65
2024/04/21 05:12:06;;;;;;;0.10;0.00;;;;;;;7.71;100.00;98949.72;104516;1268;73110;-62
2024/04/21 05:14:33;;;;;;;0.10;0.00;;;;;;;7.70;100.00;98947.09;104929;1271;61635;-59
2024/04/21 05:17:00;;;;;;;0.10;0.00;;;;;;;7.71;100.00;98934.72;104433;1267;60524;-61
2024/04/21 05:19:27;;;;;;;0.10;0.00;;;;;;;7.72;100.00;98927.31;104401;1268;73771;-66
2024/04/21 05:21:54;;;;;;;0.10;0.10;;;;;;;7.73;100.00;98921.58;104410;1269;68239;-64
2024/04/21 05:24:21;;;;;;;0.00;0.00;;;;;;;7.72;100.00;98903.56;104376;1269;71816;-63
2024/04/21 05:26:48;;;;;;;1.30;0.00;;;;;;;7.72;100.00;98888.92;104459;1267;60540;-64
2024/04/21 05:29:14;;;;;;;0.10;0.00;;;;;;;7.72;100.00;98879.29;104426;1266;60816;-58
2024/04/21 05:31:41;;;;;;;0.10;0.10;;;;;;;7.73;100.00;98885.13;104191;1265;73158;-62
2024/04/21 05:34:08;;;;;;;1.10;0.00;;;;;;;7.75;100.00;98894.48;104439;1270;66960;-64
2024/04/21 05:36:35;;;;;;;0.00;0.00;;;;;;;7.79;100.00;98898.06;104216;1268;73000;-62
2024/04/21 05:39:02;;;;;;;0.00;0.00;;;;;;;7.80;100.00;98894.44;104360;1269;60342;-59
2024/04/21 05:41:29;;;;;;;0.10;0.00;;;;;;;7.80;100.00;98891.39;104386;1269;60433;-60
2024/04/21 05:43:55;;;;;;;0.10;0.00;;;;;;;7.79;100.00;98879.29;104306;1269;74033;-59
2024/04/21 05:46:22;;;;;;;0.00;0.00;;;;;;;7.80;100.00;98881.73;104373;1268;66894;-58
2024/04/21 05:48:49;;;;;;;0.10;0.00;;;;;;;7.80;100.00;98890.31;104214;1266;72520;-62
2024/04/21 05:51:16;;;;;;;0.20;0.10;;;;;;;7.80;100.00;98903.71;104591;1268;60678;-60
2024/04/21 05:53:43;;;;;;;0.10;0.00;;;;;;;7.81;100.00;98907.77;106810;1268;59030;-63
2024/04/21 05:56:09;;;;;;;0.20;0.00;;;;;;;7.84;100.00;98921.01;104170;1263;74014;-62
2024/04/21 05:58:36;;;;;;;0.10;0.00;;;;;;;7.86;100.00;98923.38;104295;1268;66844;-61
2024/04/21 06:01:03;;;;;;;2.20;0.10;;;;;;;7.90;100.00;98922.13;104092;1265;72921;-60
2024/04/21 06:03:31;;;;;;;0.10;0.10;;;;;;;7.92;100.00;98914.69;104366;1268;61508;-63
2024/04/21 06:05:57;;;;;;;0.10;0.10;;;;;;;7.92;100.00;98899.67;104395;1268;60753;-63
2024/04/21 06:08:24;;;;;;;0.10;0.00;;;;;;;7.93;100.00;98892.30;104277;1264;73841;-65
2024/04/21 06:10:51;;;;;;;0.90;0.10;;;;;;;7.90;100.00;98876.02;104342;1269;67084;-60
2024/04/21 06:13:18;;;;;;;0.10;0.10;;;;;;;7.86;100.00;98869.43;104351;1269;71191;-62
2024/04/21 06:15:44;;;;;;;0.10;0.00;;;;;;;7.85;100.00;98857.89;104284;1268;60903;-64
2024/04/21 06:18:11;;;;;;;0.30;0.10;;;;;;;7.85;100.00;98847.15;104277;1277;60395;-62
2024/04/21 06:20:38;;;;;;;0.10;0.00;;;;;;;7.86;100.00;98839.77;104138;1271;73606;-61
2024/04/21 06:23:06;;;;;;;0.10;0.10;;;;;;;7.86;100.00;98829.60;104281;1268;65699;-57
2024/04/21 06:25:33;;;;;;;0.20;0.10;;;;;;;7.87;100.00;98835.98;105663;1264;72843;-61
2024/04/21 06:28:00;;;;;;;0.20;0.10;;;;;;;7.90;100.00;98835.50;104329;1277;60470;-64
2024/04/21 06:30:27;;;;;;;0.10;0.10;;;;;;;7.92;100.00;98835.02;104196;1264;64583;-63
2024/04/21 06:32:54;;;;;;;1.00;0.20;;;;;;;7.93;100.00;98835.69;104179;1269;76359;-61
2024/04/21 06:35:21;;;;;;;1.20;0.10;;;;;;;7.95;100.00;98835.95;104142;1272;66877;-61
2024/04/21 06:37:47;;;;;;;0.50;0.10;;;;;;;7.97;100.00;98833.69;104140;1271;73981;-61
2024/04/21 06:40:14;;;;;;;0.60;0.10;;;;;;;8.00;100.00;98830.30;104390;1267;60642;-61
2024/04/21 06:42:43;;;;;;;2.90;0.10;;;;;;;8.03;100.00;98831.93;105215;1265;60448;-63
2024/04/21 06:45:10;;;;;;;0.10;0.10;;;;;;;8.05;100.00;98829.02;105597;1268;73735;-61
2024/04/21 06:47:37;;;;;;;0.20;0.20;;;;;;;8.03;100.00;98815.52;104142;1269;67047;-62
2024/04/21 06:50:04;;;;;;;1.40;0.20;;;;;;;8.01;100.00;98802.91;108369;1265;74295;-66
2024/04/21 06:52:32;;;;;;;0.20;0.10;;;;;;;8.01;100.00;98792.92;105767;1270;62265;-61
2024/04/21 06:54:59;;;;;;;0.30;0.10;;;;;;;8.01;100.00;98782.02;104160;1264;60389;-58
2024/04/21 06:57:27;;;;;;;0.20;0.20;;;;;;;8.00;100.00;98782.93;106895;1267;74047;-61
2024/04/21 06:59:53;;;;;;;0.50;0.20;;;;;;;7.98;100.00;98775.59;105073;1258;67371;-63
2024/04/21 07:02:20;;;;;;;0.20;0.10;;;;;;;7.99;100.00;98764.42;104962;1265;71385;-65
2024/04/21 07:04:47;;;;;;;0.30;0.30;;;;;;;8.00;100.00;98768.11;105148;1267;62090;-59
2024/04/21 07:07:14;;;;;;;0.30;0.20;;;;;;;7.99;100.00;98769.61;105829;1258;59731;-62
2024/04/21 07:09:41;;;;;;;0.30;0.20;;;;;;;8.01;100.00;98778.28;104983;1254;74242;-64
2024/04/21 07:12:07;;;;;;;0.20;0.20;;;;;;;8.01;100.00;98775.75;108056;1255;67079;-64
2024/04/21 07:14:34;;;;;;;0.50;0.20;;;;;;;7.99;100.00;98781.55;105119;1257;72620;-61
2024/04/21 07:17:01;;;;;;;1.00;0.20;;;;;;;7.97;100.00;98787.95;105664;1257;61536;-62
2024/04/21 07:19:28;;;;;;;0.50;0.20;;;;;;;7.92;100.00;98788.05;105173;1267;61266;-62
2024/04/21 07:21:57;;;;;;;1.20;0.30;;;;;;;7.92;100.00;98785.36;105005;1257;72743;-63
2024/04/21 07:24:24;;;;;;;0.30;0.20;;;;;;;7.94;100.00;98770.23;105348;1257;65818;-62
2024/04/21 07:26:51;;;;;;;0.20;0.20;;;;;;;7.97;100.00;98751.36;107839;1255;73833;-63
2024/04/21 07:29:18;;;;;;;0.30;0.30;;;;;;;8.00;100.00;98757.23;105029;1266;62088;-65
2024/04/21 07:31:45;;;;;;;0.30;0.30;;;;;;;8.02;100.00;98755.69;107548;1257;59282;-61
2024/04/21 07:34:12;;;;;;;0.60;0.40;;;;;;;8.06;100.00;98752.44;105033;1254;74376;-61
2024/04/21 07:36:38;;;;;;;0.50;0.50;;;;;;;8.11;100.00;98760.02;104976;1259;66824;-62
2024/04/21 07:39:05;;;;;;;0.40;0.40;;;;;;;8.13;100.00;98757.80;105021;1255;74567;-62
2024/04/21 07:41:34;;;;;;;2.10;0.40;;;;;;;8.14;100.00;98753.82;105764;1258;61718;-61
2024/04/21 07:44:01;;;;;;;1.10;0.50;;;;;;;8.15;100.00;98742.86;105101;1253;61259;-60
2024/04/21 07:46:28;;;;;;;0.60;0.50;;;;;;;8.15;100.00;98744.63;105016;1254;74904;-62
2024/04/21 07:48:54;;;;;;;0.70;0.40;;;;;;;8.17;100.00;98737.52;106040;1258;67426;-62
2024/04/21 07:51:21;;;;;;;0.60;0.50;;;;;;;8.18;100.00;98740.15;106359;1257;72550;-63
2024/04/21 07:53:48;;;;;;;1.00;0.40;;;;;;;8.21;100.00;98744.86;105089;1265;61230;-61
2024/04/21 07:56:15;;;;;;;4.80;0.90;;;;;;;8.23;100.00;98743.66;105071;1257;61194;-58
2024/04/21 07:58:41;;;;;;;2.90;0.50;;;;;;;8.24;100.00;98745.21;105007;1254;74797;-64
2024/04/21 08:01:08;;;;;;;0.50;0.50;;;;;;;8.23;100.00;98744.94;104921;1254;66026;-62
2024/04/21 08:03:35;;;;;;;0.60;0.50;;;;;;;8.23;100.00;98739.38;104929;1256;72302;-63
2024/04/21 08:06:03;;;;;;;0.60;0.50;;;;;;;8.24;100.00;98741.10;105653;1256;61560;-61
2024/04/21 08:08:30;;;;;;;0.70;0.50;;;;;;;8.26;100.00;98746.13;105406;1257;61176;-66
2024/04/21 08:10:57;;;;;;;1.70;0.60;;;;;;;8.27;100.00;98740.73;105193;1257;74059;-61
2024/04/21 08:13:31;;;;;;;0.90;0.60;;;;;;;8.28;100.00;98744.08;105625;1259;65955;-63
2024/04/21 08:15:58;;;;;;;0.80;0.50;;;;;;;8.32;100.00;98751.98;106781;1257;73088;-66
2024/04/21 08:18:25;;;;;;;0.80;0.60;;;;;;;8.35;100.00;98750.36;105351;1258;61363;-65
2024/04/21 08:20:52;;;;;;;0.60;0.40;;;;;;;8.36;100.00;98735.45;105159;1256;61163;-60
2024/04/21 08:23:20;;;;;;;0.50;0.50;;;;;;;8.38;100.00;98723.21;105460;1254;75064;-62
2024/04/21 08:25:47;;;;;;;0.60;0.50;;;;;;;8.41;100.00;98729.64;105616;1256;68164;-60
2024/04/21 08:28:14;;;;;;;0.50;0.50;;;;;;;8.44;100.00;98726.64;109157;1254;72609;-61
2024/04/21 08:30:43;;;;;;;4.00;3.60;;;;;;;8.47;100.00;98724.67;104932;1269;61304;-62
2024/04/21 08:33:10;;;;;;;5.70;3.90;;;;;;;8.51;100.00;98740.01;107305;1255;60984;-62
2024/04/21 08:35:37;;;;;;;46.60;40.60;;;;;;;8.53;100.00;98739.54;108221;1254;75638;-63
2024/04/21 08:38:04;;;;;;;57.50;39.80;;;;;;;8.55;100.00;98745.86;105050;1256;66277;-61
2024/04/21 08:40:30;;;;;;;25.80;23.00;;;;;;;8.58;100.00;98747.27;104993;1257;72553;-60
2024/04/21 08:42:57;;;;;;;60.70;54.60;;;;;;;8.59;100.00;98748.45;106648;1257;61223;-64
2024/04/21 08:45:24;;;;;;;61.00;54.50;;;;;;;8.58;100.00;98753.20;105013;1254;61406;-63
2024/04/21 08:47:51;;;;;;;25.70;23.40;;;;;;;8.56;100.00;98752.61;105076;1258;73669;-63
2024/04/21 08:50:18;;;;;;;51.90;47.20;;;;;;;8.55;100.00;98759.98;105063;1259;67522;-61
2024/04/21 08:52:45;;;;;;;12.10;11.50;;;;;;;8.57;100.00;98758.80;105066;1254;72593;-61
2024/04/21 08:55:12;;;;;;;1.80;1.70;;;;;;;8.57;100.00;98751.45;105089;1257;61506;-62
2024/04/21 08:57:38;;;;;;;1.20;0.90;;;;;;;8.61;100.00;98755.34;105065;1257;61709;-60
2024/04/21 09:00:07;;;;;;;2.40;1.40;;;;;;;8.64;100.00;98751.44;105109;1252;73105;-58
2024/04/21 09:02:35;;;;;;;1.10;1.00;;;;;;;8.64;100.00;98748.35;106842;1254;68737;-59
2024/04/21 09:05:01;;;;;;;0.80;0.80;;;;;;;8.67;100.00;98747.16;105030;1253;72709;-62
2024/04/21 09:07:30;;;;;;;1.10;0.60;;;;;;;8.66;100.00;98748.65;105582;1254;61337;-59
2024/04/21 09:09:57;;;;;;;1.90;0.80;;;;;;;8.67;100.00;98751.26;105028;1253;61305;-63
2024/04/21 09:12:24;;;;;;;1.30;0.80;;;;;;;8.70;100.00;98750.88;105162;1254;74137;-60
2024/04/21 09:14:53;;;;;;;0.90;0.70;;;;;;;8.73;100.00;98749.65;105093;1254;66038;-60
2024/04/21 09:17:20;;;;;;;1.10;0.90;;;;;;;8.78;100.00;98750.60;105501;1255;72629;-62
2024/04/21 09:19:47;;;;;;;1.10;1.00;;;;;;;8.80;100.00;98754.80;105135;1257;61278;-62
2024/04/21 09:22:13;;;;;;;1.20;1.00;;;;;;;8.82;100.00;98754.70;106251;1254;61168;-62
2024/04/21 09:24:41;;;;;;;2.70;0.70;;;;;;;8.84;100.00;98754.40;104914;1257;75343;-65
2024/04/21 09:27:07;;;;;;;4.90;0.80;;;;;;;8.86;100.00;98753.52;108049;1256;67835;-66
2024/04/21 09:29:34;;;;;;;2.30;0.70;;;;;;;8.87;100.00;98752.77;105048;1258;73750;-61
2024/04/21 09:32:01;;;;;;;0.90;0.70;;;;;;;8.87;100.00;98748.84;104900;1257;61775;-66
2024/04/21 09:34:28;;;;;;;1.90;1.40;;;;;;;8.89;100.00;98750.89;105081;1256;61334;-65
2024/04/21 09:36:56;;;;;;;0.90;0.80;;;;;;;8.91;100.00;98749.00;105060;1257;73456;-62
2024/04/21 09:39:22;;;;;;;1.30;1.10;;;;;;;8.95;100.00;98750.17;107461;1254;67752;-60
2024/04/21 09:41:51;;;;;;;7.30;6.70;;;;;;;8.99;100.00;98754.05;105034;1257;72539;-64
2024/04/21 09:44:17;;;;;;;11.90;10.10;;;;;;;9.03;100.00;98758.27;107200;1257;61279;-63
2024/04/21 09:46:45;;;;;;;11.80;10.70;;;;;;;9.07;100.00;98761.44;105101;1254;61350;-62
2024/04/21 09:49:12;;;;;;;24.90;22.40;;;;;;;9.09;100.00;98769.23;109053;1254;75375;-67
2024/04/21 09:51:39;;;;;;;3.20;2.90;;;;;;;9.10;100.00;98768.44;107504;1254;68262;-62
2024/04/21 09:54:06;;;;;;;24.40;22.10;;;;;;;9.11;100.00;98764.42;109181;1253;73120;-63
2024/04/21 09:56:42;;;;;;;5.00;4.70;;;;;;;9.14;100.00;98761.09;107669;1253;61811;-62
2024/04/21 09:59:10;;;;;;;2.20;1.50;;;;;;;9.15;100.00;98760.84;104932;1254;61711;-59
2024/04/21 10:01:39;;;;;;;6.70;4.80;;;;;;;9.12;100.00;98759.36;109128;1253;75566;-63
2024/04/21 10:04:10;;;;;;;7.20;6.70;;;;;;;9.12;100.00;98758.13;109200;1254;66093;-66
2024/04/21 10:06:37;;;;;;;1.00;0.90;;;;;;;9.15;100.00;98761.20;109133;1253;73623;-62
2024/04/21 10:09:04;;;;;;;1.00;0.90;;;;;;;9.17;100.00;98762.00;108998;1253;61748;-64
2024/04/21 10:11:30;;;;;;;1.70;0.70;;;;;;;9.19;100.00;98761.34;105053;1254;61307;-66
2024/04/21 10:13:59;;;;;;;0.90;0.70;;;;;;;9.22;100.00;98765.98;104982;1257;74147;-58
2024/04/21 10:16:26;;;;;;;1.90;0.80;;;;;;;9.22;100.00;98763.27;105040;1254;66134;-61
2024/04/21 10:19:03;;;;;;;1.00;0.90;;;;;;;9.19;100.00;98763.27;107867;1260;71209;-64
2024/04/21 10:21:30;;;;;;;0.80;0.80;;;;;;;9.17;100.00;98764.13;105157;1254;61713;-61
2024/04/21 10:23:58;;;;;;;1.40;0.90;;;;;;;9.17;100.00;98760.73;107257;1256;60530;-63
2024/04/21 10:26:26;;;;;;;1.70;1.00;;;;;;;9.18;100.00;98763.54;105353;1260;74606;-63
2024/04/21 10:28:53;;;;;;;1.50;0.70;;;;;;;9.19;100.00;98764.14;104924;1253;67372;-64
2024/04/21 10:31:26;;;;;;;1.00;0.80;;;;;;;9.20;100.00;98770.37;104992;1258;71887;-63
2024/04/21 10:34:12;;;;;;;1.90;0.80;;;;;;;9.23;100.00;98763.79;105080;1257;61160;-60
2024/04/21 10:36:46;;;;;;;1.90;0.80;;;;;;;9.25;100.00;98764.70;105153;1256;61424;-65
2024/04/21 10:39:25;;;;;;;0.80;0.80;;;;;;;9.29;100.00;98761.59;106384;1253;74700;-63
2024/04/21 10:41:56;;;;;;;1.00;0.90;;;;;;;9.34;100.00;98759.73;105220;1253;67811;-62
2024/04/21 10:44:23;;;;;;;1.40;0.90;;;;;;;9.37;100.00;98762.39;104741;1255;73091;-62
2024/04/21 10:46:50;;;;;;;2.60;0.90;;;;;;;9.39;100.00;98765.85;104819;1253;61438;-62
2024/04/21 10:49:16;;;;;;;8.20;1.50;;;;;;;9.40;100.00;98767.58;104932;1255;61347;-62
2024/04/21 10:51:43;;;;;;;3.50;1.10;;;;;;;9.41;100.00;98768.61;105019;1254;74970;-62
2024/04/21 10:54:11;;;;;;;1.00;0.80;;;;;;;9.42;100.00;98761.90;105056;1257;68077;-65
2024/04/21 10:56:39;;;;;;;1.80;1.00;;;;;;;9.40;100.00;98759.16;104923;1254;72339;-62
2024/04/21 10:59:05;;;;;;;0.90;0.80;;;;;;;9.39;100.00;98760.13;105001;1254;61747;-60
2024/04/21 11:01:32;;;;;;;0.70;0.60;;;;;;;9.40;100.00;98762.02;104800;1254;61228;-61
2024/04/21 11:04:01;;;;;;;1.30;0.80;;;;;;;9.41;100.00;98762.14;105080;1253;74817;-59
2024/04/21 11:06:30;;;;;;;1.40;0.90;;;;;;;9.44;100.00;98772.00;105125;1254;68926;-64
2024/04/21 11:08:57;;;;;;;1.10;0.90;;;;;;;9.46;100.00;98770.78;107351;1253;74003;-59
2024/04/21 11:11:23;;;;;;;1.20;1.00;;;;;;;9.51;100.00;98778.38;105044;1257;61331;-64
2024/04/21 11:13:50;;;;;;;1.10;0.90;;;;;;;9.55;100.00;98779.40;104888;1256;61234;-62
2024/04/21 11:16:20;;;;;;;1.90;0.80;;;;;;;9.56;100.00;98778.27;105185;1256;74667;-60
2024/04/21 11:18:47;;;;;;;1.30;1.20;;;;;;;9.58;100.00;98776.20;105093;1256;67799;-61
2024/04/21 11:21:14;;;;;;;4.00;1.20;;;;;;;9.57;100.00;98776.06;105390;1254;72420;-61
2024/04/21 11:23:42;;;;;;;1.10;1.00;;;;;;;9.56;100.00;98778.44;105241;1255;61210;-65
2024/04/21 11:26:09;;;;;;;2.50;1.10;;;;;;;9.56;100.00;98775.95;104969;1254;61398;-62